createdAt,value
2023-05-21T00:02:11.850Z,50.83
2023-05-21T00:04:40.578Z,51.07
2023-05-21T00:07:08.390Z,51.15
2023-05-21T00:09:36.251Z,51.24
2023-05-21T00:12:02.663Z,51.47
2023-05-21T00:14:29.028Z,51.22
2023-05-21T00:16:55.398Z,51.61
2023-05-21T00:19:21.833Z,51.64
2023-05-21T00:21:48.325Z,51.82
2023-05-21T00:24:14.727Z,51.94
2023-05-21T00:26:41.222Z,51.70
2023-05-21T00:29:07.585Z,51.94
2023-05-21T00:31:34.130Z,52.12
2023-05-21T00:34:00.674Z,51.70
2023-05-21T00:36:27.122Z,51.94
2023-05-21T00:38:53.523Z,52.26
2023-05-21T00:41:19.972Z,52.18
2023-05-21T00:43:46.597Z,51.97
2023-05-21T00:46:19.556Z,52.34
2023-05-21T00:48:47.225Z,52.54
2023-05-21T00:51:14.903Z,52.03
2023-05-21T00:53:41.689Z,52.51
2023-05-21T00:56:08.183Z,52.74
2023-05-21T00:58:35.393Z,52.67
2023-05-21T01:01:03.697Z,52.79
2023-05-21T01:03:30.845Z,52.70
2023-05-21T01:06:00.079Z,52.54
2023-05-21T01:08:28.854Z,52.82
2023-05-21T01:10:56.357Z,52.67
2023-05-21T01:13:24.740Z,53.05
2023-05-21T01:15:52.156Z,53.01
2023-05-21T01:18:20.015Z,53.34
2023-05-21T01:20:50.189Z,53.37
2023-05-21T01:23:17.297Z,53.55
2023-05-21T01:25:44.311Z,53.76
2023-05-21T01:28:11.118Z,54.08
2023-05-21T01:30:39.398Z,53.93
2023-05-21T01:33:20.302Z,54.11
2023-05-21T01:36:08.601Z,53.98
2023-05-21T01:38:57.284Z,54.26
2023-05-21T01:41:26.218Z,54.29
2023-05-21T01:43:56.306Z,54.38
2023-05-21T01:46:26.846Z,54.44
2023-05-21T01:48:56.100Z,54.89
2023-05-21T01:51:23.934Z,54.90
2023-05-21T01:53:50.524Z,55.14
2023-05-21T01:56:16.904Z,55.42
2023-05-21T01:58:43.968Z,55.60
2023-05-21T02:01:11.708Z,55.62
2023-05-21T02:03:38.721Z,55.92
2023-05-21T02:06:05.367Z,55.98
2023-05-21T02:08:31.724Z,56.16
2023-05-21T02:10:58.164Z,55.91
2023-05-21T02:13:26.242Z,55.92
2023-05-21T02:15:54.457Z,56.04
2023-05-21T02:18:21.444Z,56.44
2023-05-21T02:20:47.816Z,56.31
2023-05-21T02:23:14.186Z,56.63
2023-05-21T02:25:40.660Z,56.35
2023-05-21T02:28:07.239Z,56.46
2023-05-21T02:30:33.683Z,56.19
2023-05-21T02:33:00.994Z,56.66
2023-05-21T02:35:27.656Z,56.25
2023-05-21T02:37:54.277Z,56.47
2023-05-21T02:40:20.716Z,56.31
2023-05-21T02:42:48.557Z,56.31
2023-05-21T02:45:14.916Z,56.33
2023-05-21T02:47:41.561Z,56.63
2023-05-21T02:50:08.940Z,56.77
2023-05-21T02:52:35.523Z,56.66
2023-05-21T02:55:01.948Z,56.68
2023-05-21T02:57:28.383Z,56.88
2023-05-21T02:59:54.753Z,56.76
2023-05-21T03:02:21.352Z,57.51
2023-05-21T03:04:47.918Z,57.28
2023-05-21T03:07:15.675Z,57.07
2023-05-21T03:09:42.464Z,57.25
2023-05-21T03:12:09.756Z,57.30
2023-05-21T03:14:36.193Z,57.64
2023-05-21T03:17:06.507Z,57.84
2023-05-21T03:19:36.835Z,57.66
2023-05-21T03:22:04.394Z,57.89
2023-05-21T03:24:31.645Z,57.85
2023-05-21T03:26:59.050Z,58.03
2023-05-21T03:29:25.468Z,58.24
2023-05-21T03:31:53.817Z,58.09
2023-05-21T03:34:20.351Z,58.30
2023-05-21T03:36:47.572Z,58.12
2023-05-21T03:39:14.105Z,58.36
2023-05-21T03:41:40.645Z,58.41
2023-05-21T03:44:07.086Z,58.49
2023-05-21T03:46:33.690Z,58.57
2023-05-21T03:49:00.222Z,58.58
2023-05-21T03:51:27.338Z,58.80
2023-05-21T03:53:53.741Z,59.06
2023-05-21T03:56:20.114Z,58.79
2023-05-21T03:58:46.786Z,58.91
2023-05-21T04:01:13.377Z,58.98
2023-05-21T04:03:40.869Z,59.12
2023-05-21T04:06:10.164Z,59.08
2023-05-21T04:08:38.085Z,59.14
2023-05-21T04:11:04.680Z,58.91
2023-05-21T04:13:31.101Z,59.25
2023-05-21T04:15:57.715Z,59.17
2023-05-21T04:18:26.096Z,58.89
2023-05-21T04:20:53.695Z,59.09
2023-05-21T04:23:20.239Z,59.20
2023-05-21T04:25:50.528Z,59.48
2023-05-21T04:28:19.951Z,59.18
2023-05-21T04:30:47.677Z,59.15
2023-05-21T04:33:17.993Z,59.27
2023-05-21T04:35:47.140Z,59.53
2023-05-21T04:38:14.027Z,59.15
2023-05-21T04:40:40.645Z,59.36
2023-05-21T04:43:08.103Z,59.37
2023-05-21T04:45:34.658Z,59.33
2023-05-21T04:48:01.395Z,59.34
2023-05-21T04:50:30.660Z,59.08
2023-05-21T04:52:58.718Z,59.22
2023-05-21T04:55:25.934Z,59.18
2023-05-21T04:57:52.889Z,59.23
2023-05-21T05:00:20.171Z,59.07
2023-05-21T05:02:46.725Z,58.87
2023-05-21T05:05:13.215Z,59.00
2023-05-21T05:07:39.600Z,58.79
2023-05-21T05:10:07.205Z,58.72
2023-05-21T05:12:33.642Z,58.59
2023-05-21T05:15:00.179Z,58.52
2023-05-21T05:17:26.709Z,58.53
2023-05-21T05:19:53.184Z,58.52
2023-05-21T05:22:19.576Z,58.34
2023-05-21T05:24:46.010Z,57.93
2023-05-21T05:27:12.406Z,58.09
2023-05-21T05:29:38.762Z,58.04
2023-05-21T05:32:05.653Z,57.77
2023-05-21T05:34:32.375Z,58.10
2023-05-21T05:36:58.863Z,57.87
2023-05-21T05:39:25.630Z,57.82
2023-05-21T05:41:52.056Z,57.64
2023-05-21T05:44:18.505Z,57.61
2023-05-21T05:46:45.278Z,57.69
2023-05-21T05:49:11.877Z,57.57
2023-05-21T05:51:38.365Z,57.59
2023-05-21T05:54:04.957Z,57.59
2023-05-21T05:56:31.351Z,57.40
2023-05-21T05:58:58.917Z,57.33
2023-05-21T06:01:26.176Z,57.16
2023-05-21T06:03:53.084Z,57.23
2023-05-21T06:06:20.073Z,57.44
2023-05-21T06:08:46.762Z,57.16
2023-05-21T06:11:16.904Z,57.12
2023-05-21T06:13:43.376Z,57.09
2023-05-21T06:16:10.063Z,56.95
2023-05-21T06:18:36.668Z,56.90
2023-05-21T06:21:03.185Z,56.70
2023-05-21T06:23:32.038Z,56.77
2023-05-21T06:25:58.509Z,56.66
2023-05-21T06:28:24.938Z,56.61
2023-05-21T06:30:51.377Z,56.74
2023-05-21T06:33:18.122Z,56.26
2023-05-21T06:35:44.716Z,56.41
2023-05-21T06:38:11.152Z,56.87
2023-05-21T06:40:37.587Z,56.30
2023-05-21T06:43:05.184Z,56.23
2023-05-21T06:45:31.866Z,56.26
2023-05-21T06:47:58.330Z,56.25
2023-05-21T06:50:24.804Z,56.19
2023-05-21T06:52:51.325Z,56.27
2023-05-21T06:55:17.850Z,56.07
2023-05-21T06:57:44.317Z,55.52
2023-05-21T07:00:12.313Z,55.86
2023-05-21T07:02:38.927Z,55.77
2023-05-21T07:05:05.756Z,55.40
2023-05-21T07:07:32.202Z,55.25
2023-05-21T07:09:58.616Z,54.85
2023-05-21T07:12:25.367Z,55.12
2023-05-21T07:14:51.782Z,55.13
2023-05-21T07:17:18.222Z,54.96
2023-05-21T07:19:44.608Z,55.01
2023-05-21T07:22:12.536Z,55.06
2023-05-21T07:24:38.976Z,54.93
2023-05-21T07:27:17.653Z,54.52
2023-05-21T07:29:44.511Z,53.96
2023-05-21T07:32:10.980Z,53.64
2023-05-21T07:34:37.484Z,53.99
2023-05-21T07:37:04.114Z,53.78
2023-05-21T07:39:31.400Z,53.80
2023-05-21T07:41:58.020Z,53.65
2023-05-21T07:44:24.559Z,53.68
2023-05-21T07:46:51.136Z,53.45
2023-05-21T07:49:17.782Z,53.28
2023-05-21T07:51:44.266Z,53.29
2023-05-21T07:54:11.054Z,53.12
2023-05-21T07:56:37.589Z,53.09
2023-05-21T07:59:04.026Z,53.12
2023-05-21T08:01:30.726Z,53.21
2023-05-21T08:03:57.241Z,53.26
2023-05-21T08:06:24.311Z,53.49
2023-05-21T08:08:50.849Z,53.26
2023-05-21T08:11:17.367Z,52.34
2023-05-21T08:13:43.804Z,52.43
2023-05-21T08:16:11.393Z,52.07
2023-05-21T08:18:37.791Z,52.56
2023-05-21T08:21:04.654Z,52.42
2023-05-21T08:23:31.130Z,51.75
2023-05-21T08:25:57.655Z,51.61
2023-05-21T08:28:24.254Z,51.22
2023-05-21T08:30:50.771Z,51.11
2023-05-21T08:33:18.887Z,50.39
2023-05-21T08:35:46.702Z,49.64
2023-05-21T08:38:13.162Z,50.07
2023-05-21T08:40:41.353Z,50.41
2023-05-21T08:43:07.921Z,49.95
2023-05-21T08:45:38.184Z,49.64
2023-05-21T08:48:06.397Z,49.35
2023-05-21T08:50:33.318Z,49.25
2023-05-21T08:53:01.405Z,48.65
2023-05-21T08:55:28.540Z,48.39
2023-05-21T08:57:55.341Z,48.33
2023-05-21T09:00:22.098Z,48.21
2023-05-21T09:02:48.695Z,48.42
2023-05-21T09:05:16.249Z,47.84
2023-05-21T09:07:54.395Z,47.48
2023-05-21T09:10:27.096Z,47.13
2023-05-21T09:12:53.736Z,47.12
2023-05-21T09:15:20.161Z,47.29
2023-05-21T09:17:48.139Z,47.41
2023-05-21T09:20:16.420Z,46.89
2023-05-21T09:22:45.285Z,46.92
2023-05-21T09:25:15.453Z,47.21
2023-05-21T09:27:42.171Z,46.93
2023-05-21T09:30:17.336Z,47.00
2023-05-21T09:32:45.040Z,46.95
2023-05-21T09:35:13.483Z,46.58
2023-05-21T09:37:43.739Z,46.37
2023-05-21T09:40:20.911Z,46.29
2023-05-21T09:42:49.526Z,45.67
2023-05-21T09:45:20.048Z,45.36
2023-05-21T09:47:48.017Z,45.08
2023-05-21T09:50:19.069Z,45.46
2023-05-21T09:52:45.976Z,45.50
2023-05-21T09:55:13.971Z,45.04
2023-05-21T09:57:47.165Z,45.38
2023-05-21T10:00:21.201Z,45.61
2023-05-21T10:02:59.667Z,45.35
2023-05-21T10:05:28.848Z,45.78
2023-05-21T10:08:01.038Z,46.00
2023-05-21T10:10:28.880Z,45.84
2023-05-21T10:12:59.601Z,46.08
2023-05-21T10:15:28.442Z,45.92
2023-05-21T10:17:56.277Z,45.85
2023-05-21T10:20:23.072Z,45.78
2023-05-21T10:22:50.660Z,45.89
2023-05-21T10:25:17.533Z,45.69
2023-05-21T10:27:44.883Z,45.86
2023-05-21T10:30:11.718Z,45.68
2023-05-21T10:32:41.774Z,45.70
2023-05-21T10:35:09.813Z,45.71
2023-05-21T10:37:36.613Z,45.28
2023-05-21T10:40:04.415Z,44.73
2023-05-21T10:42:30.939Z,45.10
2023-05-21T10:45:21.124Z,44.82
2023-05-21T10:48:08.933Z,44.72
2023-05-21T10:50:35.555Z,45.08
2023-05-21T10:53:13.707Z,44.74
2023-05-21T10:55:58.427Z,44.59
2023-05-21T10:58:46.570Z,44.46
2023-05-21T11:01:15.182Z,44.63
2023-05-21T11:03:42.060Z,44.65
2023-05-21T11:06:09.423Z,44.58
2023-05-21T11:08:37.234Z,44.65
2023-05-21T11:11:04.435Z,44.54
2023-05-21T11:13:58.358Z,44.90
2023-05-21T11:16:27.718Z,44.74
2023-05-21T11:18:54.977Z,44.76
2023-05-21T11:21:22.567Z,44.88
2023-05-21T11:23:56.675Z,44.31
2023-05-21T11:26:27.731Z,44.10
2023-05-21T11:29:03.497Z,44.08
2023-05-21T11:31:37.962Z,43.52
2023-05-21T11:34:28.559Z,43.15
2023-05-21T11:37:30.145Z,43.35
2023-05-21T11:39:59.040Z,43.04
2023-05-21T11:42:38.635Z,43.39
2023-05-21T11:45:05.716Z,43.10
2023-05-21T11:47:32.479Z,43.55
2023-05-21T11:50:01.703Z,43.71
2023-05-21T11:52:32.709Z,43.56
2023-05-21T11:54:59.784Z,42.91
2023-05-21T11:57:31.262Z,43.45
2023-05-21T11:59:59.101Z,43.08
2023-05-21T12:02:28.267Z,42.67
2023-05-21T12:04:54.746Z,43.00
2023-05-21T12:07:21.944Z,43.27
2023-05-21T12:09:50.145Z,43.41
2023-05-21T12:12:22.305Z,43.48
2023-05-21T12:14:54.496Z,43.50
2023-05-21T12:17:26.505Z,43.41
2023-05-21T12:19:54.415Z,43.39
2023-05-21T12:22:21.374Z,43.68
2023-05-21T12:24:48.649Z,43.55
2023-05-21T12:27:16.882Z,43.13
2023-05-21T12:29:45.476Z,43.07
2023-05-21T12:32:15.839Z,43.47
2023-05-21T12:34:50.301Z,43.35
2023-05-21T12:37:23.951Z,43.32
2023-05-21T12:39:51.774Z,43.40
2023-05-21T12:42:40.012Z,42.75
2023-05-21T12:45:08.272Z,42.48
2023-05-21T12:47:35.128Z,42.54
2023-05-21T12:50:02.947Z,42.32
2023-05-21T12:52:30.951Z,42.15
2023-05-21T12:54:58.337Z,42.08
2023-05-21T12:57:28.072Z,42.29
2023-05-21T12:59:56.920Z,42.21
2023-05-21T13:02:27.636Z,42.35
2023-05-21T13:04:58.719Z,42.40
2023-05-21T13:07:26.930Z,42.45
2023-05-21T13:09:54.311Z,42.43
2023-05-21T13:12:22.346Z,42.62
2023-05-21T13:14:56.414Z,42.49
2023-05-21T13:17:24.452Z,42.70
2023-05-21T13:20:10.187Z,42.90
2023-05-21T13:22:39.161Z,42.78
2023-05-21T13:25:07.254Z,42.52
2023-05-21T13:27:33.666Z,42.64
2023-05-21T13:30:00.978Z,42.92
2023-05-21T13:32:27.593Z,42.85
2023-05-21T13:34:54.062Z,42.83
2023-05-21T13:37:20.675Z,41.88
2023-05-21T13:39:50.359Z,42.24
2023-05-21T13:42:16.735Z,41.92
2023-05-21T13:44:43.123Z,41.86
2023-05-21T13:47:10.397Z,41.60
2023-05-21T13:49:38.057Z,41.42
2023-05-21T13:52:05.085Z,41.10
2023-05-21T13:54:32.404Z,40.79
2023-05-21T13:56:58.817Z,40.81
2023-05-21T13:59:25.460Z,40.62
2023-05-21T14:01:52.378Z,40.51
2023-05-21T14:04:20.043Z,39.75
2023-05-21T14:06:46.792Z,39.75
2023-05-21T14:09:13.433Z,40.19
2023-05-21T14:11:39.836Z,39.99
2023-05-21T14:14:06.250Z,39.99
2023-05-21T14:16:32.748Z,40.06
2023-05-21T14:18:59.500Z,39.30
2023-05-21T14:21:26.174Z,38.98
2023-05-21T14:23:52.814Z,38.31
2023-05-21T14:26:19.220Z,38.19
2023-05-21T14:28:46.237Z,38.45
2023-05-21T14:31:12.733Z,37.80
2023-05-21T14:33:39.342Z,37.45
2023-05-21T14:36:05.885Z,37.72
2023-05-21T14:38:33.083Z,37.28
2023-05-21T14:40:59.496Z,37.18
2023-05-21T14:43:25.926Z,37.13
2023-05-21T14:45:52.455Z,37.38
2023-05-21T14:48:22.688Z,37.42
2023-05-21T14:50:51.009Z,37.63
2023-05-21T14:53:18.132Z,37.25
2023-05-21T14:55:44.905Z,37.12
2023-05-21T14:58:11.597Z,37.45
2023-05-21T15:00:38.610Z,37.07
2023-05-21T15:03:06.673Z,36.99
2023-05-21T15:05:33.489Z,36.82
2023-05-21T15:07:59.958Z,36.87
2023-05-21T15:10:27.350Z,36.51
2023-05-21T15:12:54.444Z,36.54
2023-05-21T15:15:21.342Z,36.64
2023-05-21T15:17:48.879Z,36.77
2023-05-21T15:20:16.085Z,36.70
2023-05-21T15:22:42.685Z,37.09
2023-05-21T15:25:09.503Z,37.37
2023-05-21T15:27:35.930Z,37.07
2023-05-21T15:30:02.717Z,37.30
2023-05-21T15:32:29.238Z,37.59
2023-05-21T15:34:55.871Z,37.40
2023-05-21T15:37:22.480Z,37.35
2023-05-21T15:39:49.004Z,37.12
2023-05-21T15:42:15.526Z,37.48
2023-05-21T15:44:42.240Z,37.63
2023-05-21T15:47:08.842Z,37.17
2023-05-21T15:49:35.496Z,37.11
2023-05-21T15:52:02.938Z,37.12
2023-05-21T15:54:30.600Z,37.05
2023-05-21T15:56:57.281Z,36.73
2023-05-21T15:59:25.573Z,36.77
2023-05-21T16:01:52.014Z,36.63
2023-05-21T16:04:20.190Z,36.72
2023-05-21T16:06:47.455Z,36.56
2023-05-21T16:09:14.788Z,36.45
2023-05-21T16:11:41.187Z,36.68
2023-05-21T16:14:07.538Z,36.08
2023-05-21T16:16:34.098Z,36.15
2023-05-21T16:19:01.512Z,36.24
2023-05-21T16:21:28.523Z,36.49
2023-05-21T16:23:54.930Z,36.81
2023-05-21T16:26:21.378Z,36.39
2023-05-21T16:28:47.795Z,36.78
2023-05-21T16:31:14.191Z,36.99
2023-05-21T16:33:40.715Z,36.99
2023-05-21T16:36:07.274Z,36.82
2023-05-21T16:38:33.732Z,36.71
2023-05-21T16:41:00.248Z,36.94
2023-05-21T16:43:26.671Z,36.28
2023-05-21T16:45:53.341Z,36.72
2023-05-21T16:48:19.880Z,36.79
2023-05-21T16:50:49.166Z,36.76
2023-05-21T16:53:16.175Z,36.82
2023-05-21T16:55:43.213Z,36.65
2023-05-21T16:58:10.812Z,36.39
2023-05-21T17:00:37.442Z,36.43
2023-05-21T17:03:04.151Z,36.27
2023-05-21T17:05:30.761Z,37.03
2023-05-21T17:07:57.204Z,36.38
2023-05-21T17:10:24.946Z,36.74
2023-05-21T17:12:51.589Z,36.65
2023-05-21T17:15:18.094Z,36.38
2023-05-21T17:17:44.530Z,36.11
2023-05-21T17:20:11.887Z,36.22
2023-05-21T17:22:39.044Z,35.42
2023-05-21T17:25:05.984Z,35.26
2023-05-21T17:27:32.904Z,35.26
2023-05-21T17:29:59.441Z,35.34
2023-05-21T17:32:25.841Z,35.38
2023-05-21T17:34:53.033Z,35.91
2023-05-21T17:37:19.486Z,35.61
2023-05-21T17:39:45.900Z,35.98
2023-05-21T17:42:12.324Z,36.01
2023-05-21T17:44:38.749Z,35.95
2023-05-21T17:47:06.591Z,35.39
2023-05-21T17:49:33.139Z,35.66
2023-05-21T17:52:00.630Z,35.42
2023-05-21T17:54:27.057Z,35.06
2023-05-21T17:56:53.484Z,35.43
2023-05-21T17:59:21.772Z,35.53
2023-05-21T18:01:48.201Z,35.38
2023-05-21T18:04:14.662Z,35.42
2023-05-21T18:06:41.142Z,35.41
2023-05-21T18:09:07.873Z,36.02
2023-05-21T18:11:34.471Z,35.68
2023-05-21T18:14:00.859Z,35.87
2023-05-21T18:16:30.144Z,35.81
2023-05-21T18:18:56.686Z,35.60
2023-05-21T18:21:23.479Z,35.82
2023-05-21T18:23:50.081Z,35.75
2023-05-21T18:26:16.544Z,35.82
2023-05-21T18:28:42.967Z,35.96
2023-05-21T18:31:09.518Z,36.30
2023-05-21T18:33:35.896Z,36.32
2023-05-21T18:36:02.346Z,36.52
2023-05-21T18:38:28.789Z,36.80
2023-05-21T18:40:55.267Z,36.73
2023-05-21T18:43:21.646Z,37.34
2023-05-21T18:45:48.083Z,37.31
2023-05-21T18:48:14.502Z,37.43
2023-05-21T18:50:40.996Z,37.80
2023-05-21T18:53:07.371Z,37.84
2023-05-21T18:55:34.389Z,38.28
2023-05-21T18:58:01.378Z,38.51
2023-05-21T19:00:27.894Z,38.45
2023-05-21T19:02:55.377Z,38.70
2023-05-21T19:05:22.123Z,39.08
2023-05-21T19:07:48.626Z,38.89
2023-05-21T19:10:15.178Z,39.21
2023-05-21T19:12:43.331Z,39.65
2023-05-21T19:15:10.470Z,39.88
2023-05-21T19:17:39.578Z,39.99
2023-05-21T19:20:07.924Z,40.12
2023-05-21T19:22:36.813Z,40.44
2023-05-21T19:25:03.658Z,40.59
2023-05-21T19:27:30.172Z,40.42
2023-05-21T19:29:56.597Z,40.75
2023-05-21T19:32:23.631Z,40.69
2023-05-21T19:34:51.579Z,41.24
2023-05-21T19:37:18.006Z,41.25
2023-05-21T19:39:49.349Z,41.09
2023-05-21T19:42:17.219Z,41.32
2023-05-21T19:44:43.678Z,41.37
2023-05-21T19:47:10.095Z,41.69
2023-05-21T19:49:36.565Z,41.73
2023-05-21T19:52:04.823Z,41.90
2023-05-21T19:54:31.221Z,42.04
2023-05-21T19:56:57.729Z,42.26
2023-05-21T19:59:24.343Z,42.18
2023-05-21T20:01:51.509Z,42.43
2023-05-21T20:04:18.024Z,42.46
2023-05-21T20:06:44.540Z,42.38
2023-05-21T20:09:13.157Z,42.82
2023-05-21T20:11:39.586Z,42.61
2023-05-21T20:14:06.007Z,43.17
2023-05-21T20:16:33.340Z,42.99
2023-05-21T20:19:01.656Z,43.17
2023-05-21T20:21:30.385Z,43.24
2023-05-21T20:23:56.851Z,43.28
2023-05-21T20:26:23.265Z,43.56
2023-05-21T20:28:49.698Z,43.61
2023-05-21T20:31:16.208Z,43.36
2023-05-21T20:33:42.958Z,43.81
2023-05-21T20:36:09.480Z,43.11
2023-05-21T20:38:37.907Z,43.22
2023-05-21T20:41:04.964Z,43.29
2023-05-21T20:43:31.441Z,42.99
2023-05-21T20:45:59.637Z,42.96
2023-05-21T20:48:31.893Z,43.26
2023-05-21T20:50:59.899Z,43.32
2023-05-21T20:53:26.716Z,43.09
2023-05-21T20:55:54.635Z,43.54
2023-05-21T20:58:23.741Z,43.33
2023-05-21T21:00:50.319Z,43.22
2023-05-21T21:03:17.805Z,43.57
2023-05-21T21:05:44.544Z,42.79
2023-05-21T21:08:10.938Z,43.05
2023-05-21T21:10:38.641Z,42.87
2023-05-21T21:13:07.120Z,42.79
2023-05-21T21:15:34.020Z,42.86
2023-05-21T21:18:00.509Z,43.18
2023-05-21T21:20:26.984Z,43.05
2023-05-21T21:22:53.569Z,43.15
2023-05-21T21:25:19.969Z,43.09
2023-05-21T21:27:46.437Z,43.33
2023-05-21T21:30:13.048Z,43.29
2023-05-21T21:32:40.194Z,43.14
2023-05-21T21:35:06.781Z,43.52
2023-05-21T21:37:33.363Z,43.20
2023-05-21T21:39:59.754Z,43.40
2023-05-21T21:42:26.173Z,43.80
2023-05-21T21:44:52.594Z,43.76
2023-05-21T21:47:19.053Z,43.73
2023-05-21T21:49:45.401Z,43.94
2023-05-21T21:52:12.419Z,43.71
2023-05-21T21:54:38.868Z,43.69
2023-05-21T21:57:05.484Z,44.19
2023-05-21T21:59:32.047Z,44.30
2023-05-21T22:01:58.557Z,44.20
2023-05-21T22:04:25.098Z,44.48
2023-05-21T22:06:51.854Z,44.24
2023-05-21T22:09:18.379Z,44.94
2023-05-21T22:11:44.874Z,44.87
2023-05-21T22:14:11.537Z,44.72
2023-05-21T22:16:37.923Z,44.60
2023-05-21T22:19:04.450Z,44.84
2023-05-21T22:21:32.787Z,44.59
2023-05-21T22:23:59.842Z,45.33
2023-05-21T22:26:26.250Z,45.16
2023-05-21T22:28:52.729Z,45.73
2023-05-21T22:31:19.248Z,45.97
2023-05-21T22:33:45.657Z,46.50
2023-05-21T22:36:12.103Z,46.43
2023-05-21T22:38:38.481Z,46.67
2023-05-21T22:41:04.937Z,47.16
2023-05-21T22:43:33.449Z,46.94
2023-05-21T22:46:00.145Z,47.00
2023-05-21T22:48:26.712Z,47.10
2023-05-21T22:50:53.491Z,46.71
2023-05-21T22:53:20.585Z,47.19
2023-05-21T22:55:47.044Z,47.50
2023-05-21T22:58:13.404Z,47.55
2023-05-21T23:00:39.985Z,48.10
2023-05-21T23:03:06.604Z,48.14
2023-05-21T23:05:33.036Z,48.23
2023-05-21T23:07:59.410Z,49.07
2023-05-21T23:10:26.160Z,49.12
2023-05-21T23:12:52.610Z,48.56
2023-05-21T23:15:19.069Z,48.95
2023-05-21T23:17:45.845Z,48.66
2023-05-21T23:20:12.349Z,48.81
2023-05-21T23:22:38.751Z,49.32
2023-05-21T23:25:05.682Z,49.18
2023-05-21T23:27:32.109Z,49.32
2023-05-21T23:29:58.466Z,49.52
2023-05-21T23:32:25.162Z,49.35
2023-05-21T23:34:51.541Z,49.51
2023-05-21T23:37:19.476Z,49.44
2023-05-21T23:39:49.407Z,49.14
2023-05-21T23:42:16.817Z,48.54
2023-05-21T23:44:43.261Z,49.26
2023-05-21T23:47:10.045Z,49.11
2023-05-21T23:49:36.393Z,49.13
2023-05-21T23:52:02.931Z,49.32
2023-05-21T23:54:29.333Z,49.59
2023-05-21T23:56:55.873Z,49.47
2023-05-21T23:59:22.244Z,50.11
